French Lick, IN

12:48 PM EDT on May 26, 2015 (GMT -0400)
Rusk Indiana | | Change Station
CLOSE
Current Station
Personal Weather Station
Location: Shoals, IN
Elevation: 669 ft
Nearby Weather Stations

Elev 669 ft 38.55 °N, 86.74 °W | Updated 56 seconds ago

Overcast
Overcast
73.9 °F
Feels Like 72 °F
N
2.2
Wind Variable Wind from East
Gusts 5.3 mph

Today
High -- | Low -- °F
--% Chance of Precip.
Yesterday
High -- | Low -- °F
Precip. -- in
6:27 AM 9:00 PM
First Quarter, 59% visible
Pressure 30.00 in
Visibility 9.0 miles
Clouds Few 2600 ft
Mostly Cloudy 3500 ft
Overcast 6500 ft
Heat Index 72 °F
Dew Point 71 °F
Humidity 91%
Rainfall 0.09 in
Snow Depth Not available.
UV 3 out of 12
Pollen 5.30 out of 12
Air Quality Not available.
Flu Activity Sporadic
METAR KHNB 261635Z AUTO 19011KT 9SM FEW026 BKN035 OVC065 24/19 A3000 RMK AO1

More Conditions Fewer Conditions

Pressure 30.00 in
Visibility 9.0 miles
Clouds Few 2600 ft
Mostly Cloudy 3500 ft
Overcast 6500 ft
Heat Index 72 °F
Dew Point 71 °F
Humidity 91%
Rainfall 0.09 in
Snow Depth Not available.
UV 3 out of 12
Pollen 5.30 out of 12
Air Quality Not available.
Flu Activity Sporadic
METAR KHNB 261635Z AUTO 19011KT 9SM FEW026 BKN035 OVC065 24/19 A3000 RMK AO1

More Conditions Fewer Conditions

10-Day Weather Forecast

Almanac

Astronomy

May. 26, 2015 Rise Set
Actual Time
Civil Twilight
Nautical Twilight
Astronomical Twilight
Moon
Length of Visible Light
Length of Day
Tomorrow will be .
, % of the Moon is Illuminated

Today's Extremes

State Highs State Lows

Community

WunderPhotos

Upload Photos

1,824,370 photos uploaded!

WunderBlogs® & News

Nearby

Air Quality

  Air Quality AQ Index Pollutant
Not available.

Snow Depth

Station Depth Elevation

Earthquake Activity

City Distance Mag. Time & Date
Minimum magnitude displayed is 2.5.

Coastal Water Temperatures

Place Temperature

Stations

Nearby Weather Stations

Station Location Temp. Windchill Dew Point Humidity Wind Precip. Elev Updated Type